Time;durP1;ratioP1;P1;durP2;ratioP2;P2;SDS_P1;SDS_P2;PMS_P1;PMS_P2;Temp;Humidity;BMP_temperature;BMP_pressure;BME280_temperature;BME280_humidity;BME280_pressure;Samples;Min_cycle;Max_cycle;Signal;HPM_P1;HPM_P2
2021/10/29 00:00:39;;;;;;;;;8.50;8.25;;;;;22.07;41.99;100339.47;4997865;28;45421;-58
2021/10/29 00:03:05;;;;;;;;;9.75;9.75;;;;;22.08;42.04;100343.81;5015372;28;45413;-53
2021/10/29 00:05:32;;;;;;;;;8.00;7.50;;;;;22.06;42.17;100345.69;5016029;28;45357;-58
2021/10/29 00:07:57;;;;;;;;;7.00;7.00;;;;;22.08;42.12;100346.44;5015302;28;45668;-56
2021/10/29 00:10:24;;;;;;;;;9.75;8.00;;;;;22.03;42.03;100338.84;5015516;28;45227;-55
2021/10/29 00:12:49;;;;;;;;;6.50;6.50;;;;;22.05;42.34;100344.00;5015676;28;45330;-60
2021/10/29 00:15:16;;;;;;;;;11.25;9.00;;;;;22.05;41.89;100344.00;5015987;28;45534;-59
2021/10/29 00:17:42;;;;;;;;;7.00;7.00;;;;;22.05;42.01;100344.00;5015726;28;46423;-60
2021/10/29 00:20:08;;;;;;;;;8.00;7.00;;;;;22.06;42.01;100327.22;5015649;28;45552;-59
2021/10/29 00:22:33;;;;;;;;;7.00;7.00;;;;;22.04;42.21;100337.03;5015571;28;45480;-60
2021/10/29 00:24:59;;;;;;;;;9.00;7.50;;;;;22.04;41.97;100329.13;5015674;28;45412;-60
2021/10/29 00:27:24;;;;;;;;;11.25;8.00;;;;;22.01;42.12;100324.91;5015011;28;45549;-59
2021/10/29 00:29:50;;;;;;;;;10.75;8.00;;;;;22.01;41.91;100330.19;5015783;28;45309;-53
2021/10/29 00:32:15;;;;;;;;;7.75;7.75;;;;;22.00;42.14;100328.50;5018957;28;45463;-56
2021/10/29 00:34:41;;;;;;;;;8.00;7.00;;;;;21.99;42.18;100325.97;5018683;28;45563;-59
2021/10/29 00:37:06;;;;;;;;;11.00;7.75;;;;;22.00;41.93;100319.72;5000581;28;46855;-60
2021/10/29 00:39:32;;;;;;;;;9.00;7.75;;;;;21.99;41.75;100315.41;5017780;28;45443;-58
2021/10/29 00:41:57;;;;;;;;;9.25;8.25;;;;;21.98;41.97;100314.56;5018739;28;45401;-57
2021/10/29 00:44:25;;;;;;;;;7.00;7.00;;;;;21.97;42.14;100312.88;5018873;28;45373;-59
2021/10/29 00:46:53;;;;;;;;;9.75;8.00;;;;;21.96;41.95;100320.91;5018319;28;46219;-54
2021/10/29 00:49:19;;;;;;;;;7.00;7.00;;;;;21.97;41.81;100322.59;5018638;28;45431;-56
2021/10/29 00:51:46;;;;;;;;;7.00;7.00;;;;;21.95;42.00;100319.22;5018638;28;45346;-60
2021/10/29 00:54:14;;;;;;;;;7.75;7.00;;;;;21.93;41.83;100306.97;5018736;28;45307;-57
2021/10/29 00:56:40;;;;;;;;;7.75;7.75;;;;;21.90;42.15;100306.34;5018299;28;46649;-55
2021/10/29 00:59:06;;;;;;;;;10.25;9.00;;;;;21.91;41.94;100303.59;5018314;28;45641;-60
2021/10/29 01:01:31;;;;;;;;;8.50;7.75;;;;;21.89;42.03;100302.84;5018465;28;45421;-57
2021/10/29 01:03:57;;;;;;;;;6.50;6.25;;;;;21.89;42.26;100299.38;5018412;28;45471;-57
2021/10/29 01:06:22;;;;;;;;;9.00;6.25;;;;;21.87;41.99;100301.28;5018027;28;46337;-57
2021/10/29 01:08:48;;;;;;;;;7.75;7.75;;;;;21.86;42.00;100299.56;5018493;28;45469;-48
2021/10/29 01:11:17;;;;;;;;;8.00;8.00;;;;;21.84;41.78;100291.78;5018209;28;45345;-58
2021/10/29 01:13:44;;;;;;;;;11.00;11.00;;;;;21.82;42.02;100298.13;5018204;28;45487;-59
2021/10/29 01:16:11;;;;;;;;;12.00;9.00;;;;;21.83;41.73;100291.91;5017685;28;46464;-60
2021/10/29 01:18:36;;;;;;;;;8.50;8.00;;;;;21.82;41.77;100290.22;5017979;28;45459;-54
2021/10/29 01:21:01;;;;;;;;;8.00;7.00;;;;;21.81;41.83;100283.25;5018000;28;45384;-60
2021/10/29 01:23:27;;;;;;;;;7.00;6.75;;;;;21.79;42.04;100278.06;5018148;28;45491;-56
2021/10/29 01:26:22;;;;;;;;;9.50;9.00;;;;;21.77;41.88;100279.97;5017814;28;47156;-57
2021/10/29 01:28:47;;;;;;;;;8.00;8.00;;;;;21.75;42.17;100276.59;4996817;28;45743;-59
2021/10/29 01:31:14;;;;;;;;;7.00;7.00;;;;;21.74;41.86;100275.75;4999967;28;45558;-57
2021/10/29 01:33:40;;;;;;;;;7.25;7.25;;;;;21.69;42.01;100271.72;5000267;28;45515;-60
2021/10/29 01:36:05;;;;;;;;;8.00;8.00;;;;;21.71;42.06;100275.97;5017424;28;46383;-58
2021/10/29 01:38:39;;;;;;;;;8.00;8.00;;;;;21.70;41.96;100260.25;5017748;28;45382;-56
2021/10/29 01:41:05;;;;;;;;;7.75;7.75;;;;;21.71;41.79;100264.56;5017611;28;45452;-55
2021/10/29 01:43:38;;;;;;;;;7.00;7.00;;;;;21.69;42.15;100261.19;5017143;28;45495;-47
2021/10/29 01:46:03;;;;;;;;;8.00;7.00;;;;;21.68;41.81;100260.34;5017643;28;46911;-47
2021/10/29 01:48:28;;;;;;;;;8.25;7.00;;;;;21.67;42.22;100255.16;5017603;28;45322;-51
2021/10/29 01:50:54;;;;;;;;;8.75;8.50;;;;;21.66;42.11;100256.16;5017542;28;45376;-59
2021/10/29 01:53:21;;;;;;;;;8.75;8.25;;;;;21.66;42.30;100248.22;5018017;28;45539;-51
2021/10/29 01:55:47;;;;;;;;;7.25;7.25;;;;;21.65;42.19;100250.00;5017490;28;45460;-51
2021/10/29 01:58:12;;;;;;;;;7.25;7.25;;;;;21.64;42.04;100247.50;5017305;28;45469;-46
2021/10/29 02:00:38;;;;;;;;;6.50;6.50;;;;;21.62;41.98;100243.16;5017589;28;45416;-52
2021/10/29 02:03:03;;;;;;;;;8.25;7.25;;;;;21.61;42.14;100235.34;5017454;28;45477;-54
2021/10/29 02:05:28;;;;;;;;;9.50;7.00;;;;;21.59;41.89;100227.53;5017151;28;45402;-59
2021/10/29 02:07:54;;;;;;;;;5.75;5.75;;;;;21.59;42.50;100232.81;4999297;28;45357;-54
2021/10/29 02:10:19;;;;;;;;;7.25;7.25;;;;;21.59;42.11;100232.81;5017640;28;45297;-57
2021/10/29 02:12:44;;;;;;;;;11.50;9.75;;;;;21.57;42.00;100232.03;5017118;28;45624;-59
2021/10/29 02:15:10;;;;;;;;;7.00;7.00;;;;;21.57;42.34;100232.03;5017100;28;46132;-54
2021/10/29 02:17:35;;;;;;;;;8.25;8.00;;;;;21.54;42.37;100227.00;5017054;28;45332;-58
2021/10/29 02:20:03;;;;;;;;;8.00;7.75;;;;;21.53;42.21;100219.19;5017041;28;45269;-60
2021/10/29 02:22:28;;;;;;;;;8.75;7.00;;;;;21.52;42.50;100222.75;5017247;28;45472;-60
2021/10/29 02:24:53;;;;;;;;;9.25;8.25;;;;;21.50;42.37;100220.25;5016746;28;46243;-55
2021/10/29 02:27:19;;;;;;;;;7.00;6.00;;;;;21.50;42.21;100214.97;5017261;28;45349;-55
2021/10/29 02:29:44;;;;;;;;;9.50;8.75;;;;;21.49;42.29;100213.28;4999304;28;45305;-58
2021/10/29 02:32:09;;;;;;;;;9.75;7.50;;;;;21.47;42.27;100204.63;4999187;28;45342;-57
2021/10/29 02:34:35;;;;;;;;;8.25;8.25;;;;;21.44;42.35;100203.06;5016762;28;46980;-55
2021/10/29 02:37:00;;;;;;;;;7.25;7.00;;;;;21.42;42.29;100202.31;5016790;28;45439;-55
2021/10/29 02:39:25;;;;;;;;;8.75;8.75;;;;;21.44;42.22;100202.22;5016948;28;45314;-59
2021/10/29 02:41:51;;;;;;;;;7.00;7.00;;;;;21.43;42.46;100205.81;5017336;28;45436;-57
2021/10/29 02:44:16;;;;;;;;;6.00;6.00;;;;;21.43;42.23;100206.66;5016509;28;46431;-53
2021/10/29 02:46:42;;;;;;;;;10.00;7.00;;;;;21.41;42.41;100195.34;5016466;28;45338;-54
2021/10/29 02:49:07;;;;;;;;;9.00;8.00;;;;;21.40;42.63;100200.75;5016717;28;45611;-53
2021/10/29 02:51:33;;;;;;;;;9.75;9.00;;;;;21.41;42.34;100197.16;4998927;28;45345;-46
2021/10/29 02:53:59;;;;;;;;;7.75;7.75;;;;;21.41;42.39;100189.25;5016322;28;46396;-45
2021/10/29 02:56:25;;;;;;;;;7.75;6.50;;;;;21.39;42.33;100189.34;5016394;28;45385;-48
2021/10/29 02:58:50;;;;;;;;;7.50;7.50;;;;;21.39;42.23;100185.88;5016814;28;45338;-51
2021/10/29 03:01:15;;;;;;;;;10.75;8.00;;;;;21.38;42.44;100184.19;5016706;28;45562;-54
2021/10/29 03:03:41;;;;;;;;;9.00;9.00;;;;;21.37;42.44;100183.34;5016333;28;46099;-52
2021/10/29 03:06:07;;;;;;;;;9.00;9.00;;;;;21.36;42.50;100170.25;4998487;28;45774;-59
2021/10/29 03:08:32;;;;;;;;;7.50;7.50;;;;;21.36;42.35;100165.84;5016319;28;45399;-60
2021/10/29 03:10:57;;;;;;;;;11.50;8.00;;;;;21.36;42.40;100167.63;5016735;28;45317;-60
2021/10/29 03:13:23;;;;;;;;;7.75;7.75;;;;;21.35;42.48;100161.53;5016439;28;45472;-60
2021/10/29 03:15:49;;;;;;;;;8.75;7.50;;;;;21.34;42.51;100162.47;5016157;28;45591;-57
2021/10/29 03:18:16;;;;;;;;;11.00;8.00;;;;;21.31;42.54;100150.34;5016290;28;45464;-60
2021/10/29 03:20:42;;;;;;;;;10.00;9.00;;;;;21.30;42.57;100145.19;5016377;28;45448;-58
2021/10/29 03:23:07;;;;;;;;;7.00;7.00;;;;;21.32;42.39;100156.47;5015861;28;46385;-61
2021/10/29 03:25:32;;;;;;;;;7.75;6.50;;;;;21.29;42.36;100141.72;5016143;28;45480;-61
2021/10/29 03:27:58;;;;;;;;;6.25;6.25;;;;;21.30;42.31;100138.13;4998375;28;45390;-60
2021/10/29 03:30:23;;;;;;;;;9.25;7.75;;;;;21.28;42.61;100132.13;4998803;28;45271;-60
2021/10/29 03:32:48;;;;;;;;;12.50;10.00;;;;;21.28;42.37;100129.47;5015882;28;45953;-61
2021/10/29 03:35:14;;;;;;;;;10.50;9.00;;;;;21.24;42.48;100130.63;5015983;28;45364;-60
2021/10/29 03:38:09;;;;;;;;;7.00;7.00;;;;;21.25;42.49;100124.41;5016154;28;45378;-60
2021/10/29 03:40:37;;;;;;;;;7.00;6.00;;;;;21.26;42.29;100126.09;5015741;28;45270;-60
2021/10/29 03:45:29;;;;;;;;;6.50;6.25;;;;;21.25;42.75;100120.94;5015676;28;45413;-60
2021/10/29 03:47:58;;;;;;;;;8.50;7.00;;;;;21.23;42.61;100114.94;4998361;28;45392;-52
2021/10/29 03:50:29;;;;;;;;;8.75;8.50;;;;;21.21;42.45;100120.31;5016368;28;45220;-48
2021/10/29 03:55:20;;;;;;;;;7.00;7.00;;;;;21.21;42.12;100119.47;5015711;28;45362;-53
2021/10/29 03:57:46;;;;;;;;;7.75;7.50;;;;;21.20;42.60;100110.72;5015782;28;45383;-54
2021/10/29 04:00:11;;;;;;;;;6.50;6.50;;;;;21.20;42.48;100112.50;5015968;28;45306;-49
2021/10/29 04:02:37;;;;;;;;;7.25;7.25;;;;;21.20;42.32;100113.38;5015427;28;46522;-60
2021/10/29 04:05:02;;;;;;;;;8.00;6.50;;;;;21.17;42.53;100106.50;5016295;28;45385;-45
2021/10/29 04:07:28;;;;;;;;;6.00;6.00;;;;;21.18;42.67;100104.72;5019326;28;45464;-45
2021/10/29 04:09:53;;;;;;;;;6.00;6.00;;;;;21.16;42.39;100093.44;5019599;28;45523;-50
2021/10/29 04:12:18;;;;;;;;;6.00;6.00;;;;;21.18;42.55;100091.53;5001203;28;47115;-44
2021/10/29 04:14:44;;;;;;;;;6.75;6.75;;;;;21.16;42.74;100093.44;5019156;28;45366;-45
2021/10/29 04:17:10;;;;;;;;;10.00;9.00;;;;;21.16;42.61;100075.00;5018983;28;45373;-52
2021/10/29 04:19:35;;;;;;;;;10.25;8.00;;;;;21.15;42.83;100079.44;5019024;28;45372;-57
2021/10/29 04:22:01;;;;;;;;;7.25;7.25;;;;;21.15;42.77;100073.31;5018602;28;45524;-55
2021/10/29 04:24:27;;;;;;;;;7.50;7.50;;;;;21.13;42.69;100060.25;5019271;28;45336;-54
2021/10/29 04:26:56;;;;;;;;;6.50;6.50;;;;;21.15;42.83;100073.31;5018923;28;45397;-54
2021/10/29 04:29:25;;;;;;;;;7.75;7.00;;;;;21.13;42.63;100065.50;5018912;28;45641;-60
2021/10/29 04:31:50;;;;;;;;;7.50;7.25;;;;;21.12;42.58;100062.97;5033705;28;47956;-56
2021/10/29 04:34:18;;;;;;;;;7.50;6.00;;;;;21.13;42.38;100062.03;5018507;28;45611;-55
2021/10/29 04:36:44;;;;;;;;;7.25;6.00;;;;;21.11;42.61;100064.78;5018830;28;45521;-59
2021/10/29 04:39:13;;;;;;;;;8.00;6.00;;;;;21.12;42.26;100060.34;5018937;28;45737;-59
2021/10/29 04:41:46;;;;;;;;;7.00;6.50;;;;;21.11;42.67;100070.03;5018370;28;46522;-53
2021/10/29 04:44:11;;;;;;;;;9.00;7.50;;;;;21.11;42.57;100063.94;5018544;28;45429;-59
2021/10/29 04:46:37;;;;;;;;;6.00;6.00;;;;;21.10;42.52;100062.25;5000734;28;45459;-58
2021/10/29 04:49:03;;;;;;;;;6.50;6.50;;;;;21.09;42.53;100057.94;5018995;28;45413;-58
2021/10/29 04:51:29;;;;;;;;;9.00;8.00;;;;;21.10;42.45;100059.63;5018829;28;45362;-57
2021/10/29 04:53:56;;;;;;;;;9.00;9.00;;;;;21.09;42.69;100057.94;5018851;28;45344;-57
2021/10/29 04:56:22;;;;;;;;;8.50;7.25;;;;;21.09;42.24;100060.56;5018563;28;45441;-59
2021/10/29 04:58:47;;;;;;;;;6.25;6.25;;;;;21.07;42.49;100054.56;5018528;28;45575;-55
2021/10/29 05:01:13;;;;;;;;;8.00;7.00;;;;;21.08;42.61;100056.25;5018114;28;47347;-58
2021/10/29 05:03:38;;;;;;;;;4.25;3.25;;;;;21.05;42.50;100038.88;5017812;28;45783;-57
2021/10/29 05:06:04;;;;;;;;;6.25;6.25;;;;;21.06;42.89;100037.06;5000520;28;45341;-53
2021/10/29 05:08:30;;;;;;;;;6.75;6.75;;;;;21.06;42.71;100037.06;5018601;28;45551;-57
2021/10/29 05:10:55;;;;;;;;;8.50;8.50;;;;;21.05;42.63;100030.09;5017861;28;46650;-55
2021/10/29 05:13:20;;;;;;;;;6.50;6.50;;;;;21.05;42.67;100038.00;5018161;28;45427;-59
2021/10/29 05:15:46;;;;;;;;;7.00;7.00;;;;;21.03;42.74;100032.88;5000126;28;45970;-60
2021/10/29 05:18:18;;;;;;;;;7.00;7.00;;;;;21.04;42.63;100033.69;5017038;28;45631;-59
2021/10/29 05:20:44;;;;;;;;;7.25;7.00;;;;;21.03;42.86;100027.59;5001258;28;45458;-55
2021/10/29 05:23:11;;;;;;;;;6.25;5.75;;;;;21.01;42.65;100025.03;5017777;28;45424;-56
2021/10/29 05:25:36;;;;;;;;;7.25;6.00;;;;;21.01;42.62;100025.03;5017623;28;45354;-53
2021/10/29 05:28:01;;;;;;;;;7.50;7.50;;;;;21.01;42.30;100019.78;5018346;28;45593;-48
2021/10/29 05:30:27;;;;;;;;;7.00;7.00;;;;;21.01;42.30;100018.94;5018034;28;45452;-53
2021/10/29 05:32:53;;;;;;;;;5.75;5.50;;;;;21.01;42.57;100024.22;4999888;28;45507;-50
2021/10/29 05:35:19;;;;;;;;;7.25;7.25;;;;;21.01;42.59;100019.78;5017683;28;45377;-49
2021/10/29 05:37:44;;;;;;;;;7.25;7.25;;;;;21.01;42.51;100016.31;5017749;28;45525;-52
2021/10/29 05:40:10;;;;;;;;;8.25;7.00;;;;;21.01;42.71;100025.03;5017600;28;46343;-56
2021/10/29 05:42:36;;;;;;;;;5.25;5.25;;;;;21.00;42.72;100012.81;5017504;28;45467;-53
2021/10/29 05:45:05;;;;;;;;;7.00;7.00;;;;;20.98;42.55;100011.25;5017848;28;45257;-57
2021/10/29 05:47:30;;;;;;;;;7.75;7.50;;;;;20.99;43.08;100013.81;5017769;28;45299;-50
2021/10/29 05:49:56;;;;;;;;;7.25;7.25;;;;;20.99;42.80;100013.81;5017387;28;46241;-52
2021/10/29 05:52:23;;;;;;;;;5.00;5.00;;;;;20.99;42.44;100013.81;5017388;28;45352;-59
2021/10/29 05:57:17;;;;;;;;;9.50;6.75;;;;;20.97;42.91;100005.16;5017549;28;45452;-56
2021/10/29 05:59:42;;;;;;;;;7.25;6.25;;;;;20.97;42.59;100005.16;5017147;28;45514;-58
2021/10/29 06:02:08;;;;;;;;;7.00;6.00;;;;;20.97;42.81;100002.53;5017397;28;45200;-58
2021/10/29 06:04:33;;;;;;;;;6.00;6.00;;;;;20.94;42.90;99994.84;5016627;28;45524;-49
2021/10/29 06:06:59;;;;;;;;;6.75;5.00;;;;;20.96;42.96;100000.84;4999769;28;45391;-59
2021/10/29 06:09:26;;;;;;;;;8.00;8.00;;;;;20.96;42.81;99992.06;5017250;28;45835;-60
2021/10/29 06:11:51;;;;;;;;;6.25;6.25;;;;;20.95;42.50;99991.25;5016933;28;45438;-56
2021/10/29 06:14:17;;;;;;;;;8.25;7.75;;;;;20.95;42.67;99991.25;5017119;28;45448;-61
2021/10/29 06:16:42;;;;;;;;;6.25;5.75;;;;;20.90;42.69;99977.53;5016922;28;45390;-60
2021/10/29 06:19:08;;;;;;;;;7.75;6.00;;;;;20.95;42.89;99993.88;5017087;28;46051;-59
2021/10/29 06:21:44;;;;;;;;;6.25;6.25;;;;;20.95;42.93;99982.50;5017233;28;45436;-55
2021/10/29 06:24:13;;;;;;;;;6.50;6.00;;;;;20.94;42.61;99986.94;5017019;28;45318;-53
2021/10/29 06:27:01;;;;;;;;;6.75;6.75;;;;;20.93;42.95;99985.25;5017014;28;45496;-59
2021/10/29 06:29:27;;;;;;;;;6.00;6.00;;;;;20.93;43.04;99979.97;5016355;28;46324;-56
2021/10/29 06:31:52;;;;;;;;;9.75;7.50;;;;;20.92;42.53;99978.28;5016539;28;45335;-56
2021/10/29 06:34:18;;;;;;;;;7.75;6.00;;;;;20.92;42.62;99983.56;5016974;28;45434;-45
2021/10/29 06:36:45;;;;;;;;;7.25;6.00;;;;;20.92;42.60;99988.81;5016772;28;45383;-52
2021/10/29 06:39:11;;;;;;;;;7.25;7.25;;;;;20.92;43.10;99980.91;5016727;28;45681;-56
2021/10/29 06:41:36;;;;;;;;;7.50;7.00;;;;;20.92;42.69;99983.56;5016765;28;45422;-49
2021/10/29 06:44:26;;;;;;;;;6.25;6.00;;;;;20.91;43.04;99984.50;5017163;28;45454;-54
2021/10/29 07:00:28;;;;;;;;;7.00;7.00;;;;;20.79;42.24;99998.53;5016049;28;45444;-61
2021/10/29 07:41:09;;;;;;;;;7.00;7.00;;;;;20.56;42.03;99987.75;5015081;28;45432;-45
2021/10/29 07:46:05;;;;;;;;;7.50;7.00;;;;;20.55;42.02;99991.38;5015864;28;45290;-48
2021/10/29 07:48:33;;;;;;;;;8.00;6.00;;;;;20.50;41.98;99994.31;5016164;28;45403;-45
2021/10/29 07:50:59;;;;;;;;;8.00;8.00;;;;;20.52;42.29;99986.31;5016090;28;45400;-52
2021/10/29 07:53:25;;;;;;;;;7.25;7.00;;;;;20.51;42.57;99995.16;5015609;28;46464;-49
2021/10/29 07:55:51;;;;;;;;;7.50;6.50;;;;;20.46;42.43;100000.75;5015666;28;45560;-57
2021/10/29 07:58:16;;;;;;;;;9.00;7.50;;;;;20.49;42.01;99997.91;5031090;28;45422;-52
2021/10/29 08:00:42;;;;;;;;;6.75;4.00;;;;;20.48;42.22;100000.63;5015778;28;45425;-49
2021/10/29 08:03:08;;;;;;;;;8.00;7.00;;;;;20.46;42.41;100000.75;5015784;28;46238;-49
2021/10/29 08:05:35;;;;;;;;;8.50;6.50;;;;;20.47;42.53;100010.31;5015561;28;45255;-57
2021/10/29 08:08:00;;;;;;;;;7.00;7.00;;;;;20.46;42.28;100006.00;5015476;28;45226;-50
2021/10/29 08:10:26;;;;;;;;;5.25;5.25;;;;;20.47;42.38;100020.84;5015835;28;45182;-50
2021/10/29 08:12:51;;;;;;;;;5.50;5.50;;;;;20.47;42.13;100012.09;5015315;28;46434;-51
2021/10/29 08:15:17;;;;;;;;;6.00;5.00;;;;;20.46;42.30;100018.31;5015269;28;45230;-51
2021/10/29 08:17:43;;;;;;;;;7.00;6.00;;;;;20.45;41.89;100020.09;5015465;28;45433;-51
2021/10/29 08:20:11;;;;;;;;;5.75;5.75;;;;;20.46;42.42;100018.31;5015955;28;45505;-50
2021/10/29 08:22:38;;;;;;;;;6.75;5.50;;;;;20.44;42.27;100018.41;5015486;28;47491;-52
2021/10/29 08:25:05;;;;;;;;;6.75;6.00;;;;;20.45;42.48;100027.16;5015279;28;45501;-46
2021/10/29 08:27:30;;;;;;;;;6.00;6.00;;;;;20.39;42.37;100010.84;5015353;28;45465;-44
2021/10/29 08:29:56;;;;;;;;;7.00;6.00;;;;;20.43;42.41;100023.78;5015335;28;45546;-46
2021/10/29 08:32:22;;;;;;;;;9.50;6.50;;;;;20.40;42.62;100011.66;4997339;28;46189;-51
2021/10/29 08:34:47;;;;;;;;;6.75;6.00;;;;;20.42;42.81;100011.59;5015390;28;45234;-49
2021/10/29 08:37:13;;;;;;;;;6.00;6.00;;;;;20.43;42.12;100021.16;5015290;28;45485;-54
2021/10/29 08:39:38;;;;;;;;;6.00;5.00;;;;;20.43;42.16;100027.25;5015534;28;45482;-58
2021/10/29 08:42:06;;;;;;;;;6.00;6.00;;;;;20.44;42.58;100025.47;4997212;28;48077;-51
2021/10/29 08:44:33;;;;;;;;;5.25;5.25;;;;;20.45;42.91;100027.16;5015131;28;45995;-54
2021/10/29 08:47:02;;;;;;;;;6.25;6.25;;;;;20.42;42.74;100025.56;5015303;28;45421;-48
2021/10/29 08:49:33;;;;;;;;;5.00;4.50;;;;;20.43;42.79;100018.53;5015384;28;45212;-48
2021/10/29 08:52:01;;;;;;;;;6.00;6.00;;;;;20.43;42.51;100024.63;5017017;28;45418;-45
2021/10/29 08:54:27;;;;;;;;;7.50;6.75;;;;;20.44;42.77;100028.13;5018465;28;45241;-45
2021/10/29 08:56:54;;;;;;;;;6.00;6.00;;;;;20.45;42.67;100021.91;5018249;28;45274;-47
2021/10/29 08:59:30;;;;;;;;;5.00;5.00;;;;;20.44;42.60;100025.47;5018623;28;45618;-48
2021/10/29 09:02:11;;;;;;;;;7.75;6.75;;;;;20.44;42.80;100021.03;5001740;28;46488;-46
2021/10/29 09:04:58;;;;;;;;;8.75;7.25;;;;;20.44;42.86;100015.78;5018158;28;45397;-55
2021/10/29 09:32:33;;;;;;;;;6.75;5.25;;;;;20.47;42.60;100030.53;5017657;28;45907;-51
2021/10/29 09:35:08;;;;;;;;;6.75;6.75;;;;;20.49;42.60;100033.91;5017836;28;45572;-51
2021/10/29 09:37:54;;;;;;;;;5.50;5.00;;;;;20.49;42.75;100026.00;5017817;28;45357;-55
2021/10/29 09:40:23;;;;;;;;;10.75;6.00;;;;;20.50;42.81;100023.28;5017876;28;45486;-54
2021/10/29 09:42:50;;;;;;;;;6.75;6.25;;;;;20.51;42.68;100026.75;5017772;28;45570;-55
2021/10/29 09:45:19;;;;;;;;;6.50;5.25;;;;;20.52;42.77;100017.91;4999792;28;48204;-58
2021/10/29 09:47:55;;;;;;;;;6.50;6.00;;;;;20.53;42.71;100025.69;5000164;28;45399;-53
2021/10/29 09:50:25;;;;;;;;;5.25;4.00;;;;;20.54;42.57;100021.28;5016600;28;45659;-54
2021/10/29 09:53:08;;;;;;;;;5.75;5.75;;;;;20.54;43.02;100019.47;5016615;28;45666;-57
2021/10/29 09:58:14;;;;;;;;;6.75;5.00;;;;;20.54;42.51;100023.91;5017642;28;45517;-55
2021/10/29 10:00:41;;;;;;;;;7.00;4.00;;;;;20.53;42.91;100025.69;5000165;28;45355;-56
2021/10/29 10:03:08;;;;;;;;;7.75;5.25;;;;;20.56;42.88;100040.41;4998988;28;45549;-53
2021/10/29 10:05:33;;;;;;;;;5.00;4.75;;;;;20.57;42.82;100042.09;5017395;28;46189;-60
2021/10/29 10:08:00;;;;;;;;;5.75;4.00;;;;;20.55;42.50;100044.03;5016319;28;45804;-55
2021/10/29 10:10:27;;;;;;;;;5.75;5.00;;;;;20.58;42.70;100058.75;5017312;28;45424;-57
2021/10/29 10:12:56;;;;;;;;;4.00;4.00;;;;;20.55;43.07;100044.84;5017512;28;45413;-56
2021/10/29 10:15:22;;;;;;;;;4.00;4.00;;;;;20.55;42.94;100042.22;5016971;28;46674;-60
2021/10/29 10:17:51;;;;;;;;;6.00;5.00;;;;;20.56;42.65;100053.56;5016949;28;45361;-51
2021/10/29 10:20:17;;;;;;;;;5.25;5.25;;;;;20.57;42.58;100057.91;5017209;28;45449;-46
2021/10/29 10:22:47;;;;;;;;;6.75;6.75;;;;;20.55;42.56;100060.66;5017603;28;45436;-46
2021/10/29 10:26:12;;;;;;;;;4.25;4.25;;;;;20.57;42.63;100057.91;5017452;28;46592;-51
2021/10/29 10:47:06;;;;;;;;;5.00;5.00;;;;;20.55;43.17;100038.75;5016625;28;45373;-60
2021/10/29 10:49:34;;;;;;;;;3.25;3.25;;;;;20.57;43.30;100047.38;5016395;28;45986;-60
2021/10/29 10:52:19;;;;;;;;;5.50;5.50;;;;;20.57;43.24;100036.00;5016744;28;45499;-59
2021/10/29 10:54:49;;;;;;;;;4.75;4.75;;;;;20.57;43.10;100046.53;5017438;28;45421;-54
2021/10/29 11:11:04;;;;;;;;;6.25;4.50;;;;;20.54;43.15;100058.13;5016159;28;45381;-56
2021/10/29 11:13:41;;;;;;;;;6.00;5.00;;;;;20.55;43.24;100065.09;5016197;28;45326;-53
2021/10/29 11:16:07;;;;;;;;;7.00;5.50;;;;;20.54;43.22;100053.69;5015426;28;45390;-57
2021/10/29 11:18:34;;;;;;;;;4.75;4.50;;;;;20.54;43.24;100051.06;5015890;28;45472;-56
2021/10/29 11:21:19;;;;;;;;;4.75;4.50;;;;;20.54;43.50;100048.44;5016194;28;45442;-60
2021/10/29 11:23:53;;;;;;;;;6.00;4.00;;;;;20.54;43.62;100037.91;5016545;28;45389;-58
2021/10/29 11:26:25;;;;;;;;;5.50;4.50;;;;;20.55;43.30;100038.75;5016680;28;45578;-56
2021/10/29 11:28:53;;;;;;;;;5.00;5.00;;;;;20.54;43.55;100032.63;5015774;28;47416;-59
2021/10/29 11:31:23;;;;;;;;;5.50;5.00;;;;;20.55;43.83;100029.06;5016334;28;45917;-51
2021/10/29 11:33:51;;;;;;;;;8.00;5.00;;;;;20.57;43.50;100036.00;5016557;28;45485;-55
2021/10/29 11:36:21;;;;;;;;;5.75;4.25;;;;;20.54;43.76;100027.38;5016529;28;45548;-52
2021/10/29 11:38:48;;;;;;;;;5.50;4.00;;;;;20.54;43.78;100026.53;5016117;28;45642;-57
2021/10/29 11:41:20;;;;;;;;;5.50;4.00;;;;;20.55;43.77;100020.34;4998124;28;45771;-51
2021/10/29 11:43:47;;;;;;;;;6.25;4.75;;;;;20.57;43.45;100014.94;5016079;28;45429;-53
2021/10/29 11:46:14;;;;;;;;;5.00;5.00;;;;;20.55;43.65;100010.63;5016233;28;45448;-53
2021/10/29 11:48:52;;;;;;;;;6.00;4.00;;;;;20.55;43.84;100010.63;5015824;28;46488;-49
2021/10/29 11:51:19;;;;;;;;;6.50;4.75;;;;;20.57;43.80;100005.25;5016244;28;45242;-49
2021/10/29 11:54:36;;;;;;;;;4.00;4.00;;;;;20.56;43.91;100003.56;5015069;28;45407;-48
2021/10/29 12:05:46;;;;;;;;;7.50;4.75;;;;;20.55;43.51;99994.84;5015601;28;45486;-55
2021/10/29 12:07:33;;;;;;;;;6.75;5.00;;;;;20.56;43.70;100008.81;5015888;28;45401;-46
2021/10/29 12:10:05;;;;;;;;;3.75;3.75;;;;;20.57;43.69;100009.69;5015436;28;46182;-48
2021/10/29 12:12:36;;;;;;;;;5.00;5.00;;;;;20.54;43.78;100003.69;5015527;28;45486;-52
2021/10/29 12:15:08;;;;;;;;;5.50;5.25;;;;;20.54;44.10;99995.78;5015630;28;45309;-56
2021/10/29 12:17:44;;;;;;;;;4.75;4.75;;;;;20.55;44.21;100001.91;5015726;28;45546;-56
2021/10/29 12:20:15;;;;;;;;;3.75;3.75;;;;;20.55;44.05;99992.19;5015106;28;45497;-57
2021/10/29 12:25:30;;;;;;;;;7.50;6.00;;;;;20.55;44.19;99992.19;5015595;28;45790;-56
2021/10/29 12:28:01;;;;;;;;;6.00;5.00;;;;;20.57;44.05;99993.88;5019033;28;45540;-58
2021/10/29 12:51:52;;;;;;;;;3.50;3.50;;;;;20.60;43.90;99993.69;5018788;28;45285;-53
2021/10/29 12:59:04;;;;;;;;;5.25;5.25;;;;;20.57;43.95;99959.66;5018492;28;45370;-57
2021/10/29 13:04:13;;;;;;;;;5.00;5.00;;;;;20.57;43.96;99943.88;5018228;28;45535;-60
2021/10/29 13:06:42;;;;;;;;;5.25;5.00;;;;;20.58;43.90;99946.38;5000347;28;45413;-59
2021/10/29 13:09:20;;;;;;;;;6.50;5.50;;;;;20.58;44.43;99966.63;5018249;28;45551;-60
2021/10/29 13:11:50;;;;;;;;;4.00;4.00;;;;;20.58;44.10;99974.50;5018501;28;45385;-60
2021/10/29 13:14:26;;;;;;;;;4.25;4.25;;;;;20.57;44.27;99971.03;5017888;28;47044;-52
2021/10/29 13:16:52;;;;;;;;;5.25;4.25;;;;;20.57;44.06;99967.56;5018394;28;45307;-52
2021/10/29 13:20:11;;;;;;;;;6.00;5.75;;;;;20.57;43.90;99973.66;5017942;28;45424;-49
2021/10/29 13:36:01;;;;;;;;;4.00;4.00;;;;;20.54;44.26;99976.53;5017727;28;45876;-56
2021/10/29 13:59:34;;;;;;;;;4.00;4.00;;;;;20.53;44.43;100004.63;5017404;28;45803;-49
2021/10/29 14:29:05;;;;;;;;;4.00;4.00;;;;;20.52;44.61;100024.00;5016836;28;45807;-58
2021/10/29 14:34:10;;;;;;;;;4.50;4.50;;;;;20.51;44.68;100010.94;5017187;28;45271;-55
2021/10/29 14:39:19;;;;;;;;;6.25;4.00;;;;;20.51;45.01;100017.03;5016626;28;45232;-59
2021/10/29 14:41:59;;;;;;;;;5.00;5.00;;;;;20.51;45.09;100024.09;5016750;28;45958;-59
2021/10/29 14:44:33;;;;;;;;;8.00;5.25;;;;;20.50;44.95;100012.75;5016983;28;45373;-56
2021/10/29 15:42:23;;;;;;;;;8.25;6.00;;;;;20.50;45.28;100014.53;5015728;28;45392;-59
2021/10/29 15:44:57;;;;;;;;;6.00;6.00;;;;;20.46;45.61;100016.53;5015815;28;45747;-55
2021/10/29 15:47:40;;;;;;;;;6.75;5.25;;;;;20.49;45.74;100024.22;5015863;28;45338;-51
2021/10/29 15:50:07;;;;;;;;;5.75;5.00;;;;;20.49;45.62;100032.13;4998254;28;45812;-49
2021/10/29 15:52:33;;;;;;;;;3.00;3.00;;;;;20.48;45.69;100033.06;5015725;28;47533;-55
2021/10/29 15:55:04;;;;;;;;;4.00;4.00;;;;;20.49;45.77;100033.91;5016447;28;45239;-55
2021/10/29 15:57:31;;;;;;;;;6.25;5.75;;;;;20.50;45.47;100038.22;5016180;28;45361;-57
2021/10/29 16:02:47;;;;;;;;;3.00;2.00;;;;;20.49;45.63;100039.16;5018632;28;46039;-48
2021/10/29 16:18:52;;;;;;;;;5.75;5.00;;;;;20.48;45.67;100034.84;5018935;28;45465;-57
2021/10/29 16:21:17;;;;;;;;;6.50;5.00;;;;;20.48;45.49;100032.22;5019093;28;45562;-60
2021/10/29 16:23:43;;;;;;;;;6.75;5.25;;;;;20.46;45.87;100026.19;5018802;28;46572;-60
2021/10/29 16:26:12;;;;;;;;;5.00;5.00;;;;;20.48;45.70;100033.06;5001001;28;45441;-59
2021/10/29 16:28:39;;;;;;;;;5.75;5.75;;;;;20.47;45.38;100022.63;5018816;28;45396;-56
2021/10/29 16:31:06;;;;;;;;;5.00;5.00;;;;;20.49;45.43;100018.09;5019313;28;45503;-51